createdAt,value
2018-09-14T00:02:21.435Z,99248.42
2018-09-14T00:04:49.821Z,99245.50
2018-09-14T00:07:18.138Z,99245.89
2018-09-14T00:09:46.585Z,99242.41
2018-09-14T00:12:14.923Z,99238.73
2018-09-14T00:14:43.274Z,99240.02
2018-09-14T00:17:11.582Z,99241.73
2018-09-14T00:19:39.921Z,99240.83
2018-09-14T00:22:08.291Z,99242.77
2018-09-14T00:24:36.643Z,99246.48
2018-09-14T00:27:05.069Z,99240.92
2018-09-14T00:29:33.460Z,99238.84
2018-09-14T00:32:01.826Z,99233.63
2018-09-14T00:34:30.173Z,99234.77
2018-09-14T00:36:58.500Z,99235.42
2018-09-14T00:39:26.870Z,99241.97
2018-09-14T00:41:55.194Z,99242.25
2018-09-14T00:44:23.584Z,99238.12
2018-09-14T00:46:52.894Z,99237.34
2018-09-14T00:49:21.247Z,99239.02
2018-09-14T00:51:49.575Z,99246.98
2018-09-14T00:54:17.947Z,99238.55
2018-09-14T00:56:46.339Z,99242.06
2018-09-14T00:59:14.679Z,99240.95
2018-09-14T01:01:42.974Z,99243.55
2018-09-14T01:04:11.306Z,99254.25
2018-09-14T01:06:39.667Z,99251.43
2018-09-14T01:09:13.300Z,99244.39
2018-09-14T01:11:41.867Z,99240.66
2018-09-14T01:14:10.179Z,99244.80
2018-09-14T01:16:38.531Z,99243.13
2018-09-14T01:19:06.914Z,99239.73
2018-09-14T01:21:35.275Z,99239.72
2018-09-14T01:24:03.624Z,99246.09
2018-09-14T01:26:32.095Z,99250.30
2018-09-14T01:29:00.422Z,99251.01
2018-09-14T01:31:28.732Z,99246.70
2018-09-14T01:33:57.076Z,99253.13
2018-09-14T01:36:25.403Z,99257.47
2018-09-14T01:38:53.713Z,99247.35
2018-09-14T01:41:22.050Z,99251.52
2018-09-14T01:43:50.366Z,99254.45
2018-09-14T01:46:18.808Z,99253.35
2018-09-14T01:48:47.206Z,99248.94
2018-09-14T01:51:15.554Z,99257.08
2018-09-14T01:53:44.018Z,99255.01
2018-09-14T01:56:12.503Z,99249.89
2018-09-14T01:58:40.799Z,99249.30
2018-09-14T02:01:09.166Z,99247.19
2018-09-14T02:03:37.555Z,99240.22
2018-09-14T02:06:05.913Z,99239.52
2018-09-14T02:08:34.324Z,99244.06
2018-09-14T02:11:02.654Z,99241.48
2018-09-14T02:13:31.005Z,99235.92
2018-09-14T02:15:59.313Z,99242.72
2018-09-14T02:18:27.721Z,99239.86
2018-09-14T02:20:56.034Z,99236.27
2018-09-14T02:23:24.391Z,99232.37
2018-09-14T02:25:52.764Z,99236.89
2018-09-14T02:28:21.259Z,99231.97
2018-09-14T02:30:49.773Z,99223.36
2018-09-14T02:33:18.107Z,99219.34
2018-09-14T02:35:46.510Z,99219.52
2018-09-14T02:38:14.806Z,99219.02
2018-09-14T02:40:43.129Z,99214.55
2018-09-14T02:43:11.514Z,99211.81
2018-09-14T02:45:39.862Z,99215.50
2018-09-14T02:48:09.005Z,99214.09
2018-09-14T02:50:37.397Z,99219.34
2018-09-14T02:53:05.839Z,99212.12
2018-09-14T02:55:34.255Z,99222.93
2018-09-14T02:58:02.579Z,99221.91
2018-09-14T03:00:30.880Z,99224.27
2018-09-14T03:02:59.223Z,99224.48
2018-09-14T03:05:28.378Z,99215.33
2018-09-14T03:07:56.823Z,99217.23
2018-09-14T03:10:25.154Z,99221.48
2018-09-14T03:12:53.490Z,99229.55
2018-09-14T03:15:21.840Z,99221.95
2018-09-14T03:17:50.251Z,99220.92
2018-09-14T03:20:18.596Z,99216.91
2018-09-14T03:22:46.922Z,99212.89
2018-09-14T03:25:15.292Z,99211.48
2018-09-14T03:27:43.596Z,99208.08
2018-09-14T03:30:11.948Z,99212.02
2018-09-14T03:32:40.263Z,99214.55
2018-09-14T03:35:08.594Z,99213.70
2018-09-14T03:37:36.928Z,99208.08
2018-09-14T03:40:05.360Z,99205.54
2018-09-14T03:42:33.756Z,99203.78
2018-09-14T03:45:02.096Z,99208.17
2018-09-14T03:47:30.496Z,99208.11
2018-09-14T03:49:58.811Z,99209.30
2018-09-14T03:52:27.155Z,99208.73
2018-09-14T03:54:55.466Z,99211.02
2018-09-14T03:57:24.045Z,99216.69
2018-09-14T03:59:52.494Z,99209.14
2018-09-14T04:02:20.965Z,99209.02
2018-09-14T04:04:49.351Z,99216.00
2018-09-14T04:07:17.653Z,99216.77
2018-09-14T04:09:46.015Z,99208.64
2018-09-14T04:12:14.382Z,99214.70
2018-09-14T04:14:42.737Z,99213.02
2018-09-14T04:17:11.155Z,99216.61
2018-09-14T04:19:40.935Z,99214.05
2018-09-14T04:22:09.255Z,99215.39
2018-09-14T04:24:37.594Z,99218.41
2018-09-14T04:27:05.890Z,99222.57
2018-09-14T04:29:34.245Z,99214.50
2018-09-14T04:32:02.564Z,99212.66
2018-09-14T04:34:30.935Z,99206.73
2018-09-14T04:36:59.335Z,99216.56
2018-09-14T04:39:27.648Z,99213.53
2018-09-14T04:41:56.036Z,99219.28
2018-09-14T04:44:24.395Z,99220.48
2018-09-14T04:46:52.806Z,99225.34
2018-09-14T04:49:21.159Z,99226.61
2018-09-14T04:51:49.488Z,99225.77
2018-09-14T04:54:17.901Z,99227.31
2018-09-14T04:56:46.359Z,99228.38
2018-09-14T04:59:15.020Z,99227.39
2018-09-14T05:01:43.398Z,99225.42
2018-09-14T05:04:11.805Z,99228.86
2018-09-14T05:06:40.227Z,99226.20
2018-09-14T05:09:08.916Z,99230.08
2018-09-14T05:11:37.276Z,99227.32
2018-09-14T05:14:05.771Z,99229.00
2018-09-14T05:16:34.080Z,99225.56
2018-09-14T05:19:02.555Z,99229.45
2018-09-14T05:21:30.981Z,99231.84
2018-09-14T05:23:59.474Z,99234.00
2018-09-14T05:26:27.782Z,99235.72
2018-09-14T05:28:56.291Z,99239.43
2018-09-14T05:31:24.756Z,99242.62
2018-09-14T05:33:53.122Z,99243.33
2018-09-14T05:36:21.491Z,99245.36
2018-09-14T05:38:49.879Z,99251.86
2018-09-14T05:41:18.339Z,99250.52
2018-09-14T05:43:46.750Z,99251.72
2018-09-14T05:46:15.115Z,99247.70
2018-09-14T05:48:43.554Z,99248.33
2018-09-14T05:51:11.896Z,99248.84
2018-09-14T05:53:40.227Z,99249.25
2018-09-14T05:56:08.596Z,99255.95
2018-09-14T05:58:36.990Z,99255.45
2018-09-14T06:01:05.396Z,99256.03
2018-09-14T06:03:33.811Z,99259.67
2018-09-14T06:06:02.177Z,99261.11
2018-09-14T06:08:30.547Z,99262.21
2018-09-14T06:10:58.873Z,99263.91
2018-09-14T06:13:27.399Z,99265.47
2018-09-14T06:15:55.897Z,99262.97
2018-09-14T06:18:24.295Z,99267.10
2018-09-14T06:20:52.740Z,99277.25
2018-09-14T06:23:21.076Z,99272.52
2018-09-14T06:25:49.402Z,99272.00
2018-09-14T06:28:17.711Z,99274.98
2018-09-14T06:30:46.061Z,99273.86
2018-09-14T06:33:14.427Z,99273.63
2018-09-14T06:35:42.778Z,99267.98
2018-09-14T06:38:11.372Z,99265.56
2018-09-14T06:40:40.046Z,99268.19
2018-09-14T06:43:08.359Z,99275.59
2018-09-14T06:45:36.704Z,99274.09
2018-09-14T06:48:05.024Z,99269.87
2018-09-14T06:50:33.377Z,99274.05
2018-09-14T06:53:01.892Z,99271.11
2018-09-14T06:55:30.224Z,99271.27
2018-09-14T06:57:58.597Z,99274.34
2018-09-14T07:00:27.270Z,99278.94
2018-09-14T07:02:55.403Z,99276.45
2018-09-14T07:05:23.742Z,99273.99
2018-09-14T07:07:52.115Z,99276.37
2018-09-14T07:10:20.557Z,99278.35
2018-09-14T07:12:48.886Z,99279.35
2018-09-14T07:15:17.259Z,99283.09
2018-09-14T07:17:45.616Z,99285.43
2018-09-14T07:20:14.100Z,99281.06
2018-09-14T07:22:42.461Z,99282.23
2018-09-14T07:25:10.940Z,99283.72
2018-09-14T07:27:39.889Z,99286.06
2018-09-14T07:30:08.514Z,99288.94
2018-09-14T07:32:36.904Z,99291.43
2018-09-14T07:35:05.219Z,99289.66
2018-09-14T07:37:33.700Z,99289.81
2018-09-14T07:40:02.038Z,99288.95
2018-09-14T07:42:30.508Z,99288.98
2018-09-14T07:44:58.836Z,99293.66
2018-09-14T07:47:27.181Z,99295.28
2018-09-14T07:49:56.303Z,99293.70
2018-09-14T07:52:24.695Z,99295.73
2018-09-14T07:54:53.064Z,99295.27
2018-09-14T07:57:21.399Z,99294.16
2018-09-14T07:59:49.722Z,99296.11
2018-09-14T08:02:18.161Z,99297.00
2018-09-14T08:04:46.513Z,99297.41
2018-09-14T08:07:14.830Z,99295.47
2018-09-14T08:09:43.165Z,99294.35
2018-09-14T08:12:11.515Z,99297.20
2018-09-14T08:14:39.889Z,99297.70
2018-09-14T08:17:08.220Z,99296.75
2018-09-14T08:19:36.593Z,99301.13
2018-09-14T08:22:05.007Z,99296.84
2018-09-14T08:24:33.442Z,99293.04
2018-09-14T08:27:02.018Z,99301.16
2018-09-14T08:29:30.598Z,99303.87
2018-09-14T08:31:59.137Z,99299.83
2018-09-14T08:34:27.500Z,99304.12
2018-09-14T08:36:55.844Z,99296.80
2018-09-14T08:39:24.335Z,99304.19
2018-09-14T08:41:52.872Z,99305.05
2018-09-14T08:44:21.258Z,99299.73
2018-09-14T08:46:49.677Z,99303.83
2018-09-14T08:49:17.975Z,99310.88
2018-09-14T08:51:46.517Z,99306.66
2018-09-14T08:54:14.815Z,99304.06
2018-09-14T08:56:43.187Z,99308.10
2018-09-14T08:59:11.612Z,99306.61
2018-09-14T09:01:40.138Z,99309.77
2018-09-14T09:04:08.639Z,99315.28
2018-09-14T09:06:36.962Z,99310.75
2018-09-14T09:09:08.421Z,99308.68
2018-09-14T09:11:36.790Z,99312.44
2018-09-14T09:14:05.146Z,99313.03
2018-09-14T09:16:33.435Z,99316.33
2018-09-14T09:19:01.965Z,99314.35
2018-09-14T09:21:30.860Z,99314.77
2018-09-14T09:23:59.646Z,99316.03
2018-09-14T09:26:28.287Z,99312.84
2018-09-14T09:28:56.899Z,99309.89
2018-09-14T09:31:25.258Z,99304.89
2018-09-14T09:33:53.758Z,99302.13
2018-09-14T09:36:22.130Z,99302.09
2018-09-14T09:38:50.440Z,99301.31
2018-09-14T09:41:18.763Z,99295.91
2018-09-14T09:43:47.135Z,99290.61
2018-09-14T09:46:15.510Z,99294.50
2018-09-14T09:48:43.937Z,99291.89
2018-09-14T09:51:12.380Z,99299.33
2018-09-14T09:53:40.755Z,99294.95
2018-09-14T09:56:09.107Z,99293.47
2018-09-14T09:58:37.460Z,99292.00
2018-09-14T10:01:11.528Z,99296.69
2018-09-14T10:03:44.672Z,99296.37
2018-09-14T10:06:18.299Z,99292.48
2018-09-14T10:08:46.652Z,99288.99
2018-09-14T10:11:15.062Z,99296.45
2018-09-14T10:13:43.434Z,99300.83
2018-09-14T10:16:11.776Z,99292.99
2018-09-14T10:18:40.086Z,99296.80
2018-09-14T10:21:08.468Z,99295.62
2018-09-14T10:23:36.790Z,99301.22
2018-09-14T10:26:05.354Z,99301.02
2018-09-14T10:28:33.703Z,99293.48
2018-09-14T10:31:02.078Z,99285.83
2018-09-14T10:33:30.418Z,99292.94
2018-09-14T10:35:58.857Z,99280.80
2018-09-14T10:38:27.151Z,99290.59
2018-09-14T10:40:55.573Z,99284.22
2018-09-14T10:43:23.846Z,99287.03
2018-09-14T10:45:52.290Z,99277.41
2018-09-14T10:48:20.618Z,99268.78
2018-09-14T10:50:48.964Z,99268.34
2018-09-14T10:53:17.307Z,99266.84
2018-09-14T10:55:45.610Z,99260.59
2018-09-14T10:58:13.945Z,99252.16
2018-09-14T11:00:42.291Z,99253.84
2018-09-14T11:03:10.587Z,99247.09
2018-09-14T11:05:38.936Z,99245.26
2018-09-14T11:08:07.329Z,99245.72
2018-09-14T11:10:35.678Z,99241.36
2018-09-14T11:13:04.145Z,99244.91
2018-09-14T11:15:32.941Z,99241.68
2018-09-14T11:18:01.291Z,99240.70
2018-09-14T11:20:30.157Z,99236.67
2018-09-14T11:22:58.411Z,99240.67
2018-09-14T11:25:26.926Z,99237.17
2018-09-14T11:27:55.182Z,99237.45
2018-09-14T11:30:23.603Z,99224.05
2018-09-14T11:32:51.911Z,99222.49
2018-09-14T11:35:20.185Z,99225.02
2018-09-14T11:37:48.615Z,99221.51
2018-09-14T11:40:17.001Z,99220.95
2018-09-14T11:42:45.371Z,99218.41
2018-09-14T11:45:13.683Z,99214.68
2018-09-14T11:47:42.030Z,99211.46
2018-09-14T11:50:10.398Z,99208.62
2018-09-14T11:52:38.949Z,99204.24
2018-09-14T11:55:07.470Z,99210.75
2018-09-14T11:57:35.947Z,99203.38
2018-09-14T12:00:04.293Z,99200.92
2018-09-14T12:02:32.679Z,99201.14
2018-09-14T12:05:00.997Z,99204.61
2018-09-14T12:07:32.769Z,99193.80
2018-09-14T12:10:01.140Z,99195.84
2018-09-14T12:12:29.539Z,99192.48
2018-09-14T12:14:57.986Z,99183.11
2018-09-14T12:17:26.387Z,99179.19
2018-09-14T12:19:54.778Z,99179.27
2018-09-14T12:22:23.634Z,99176.21
2018-09-14T12:24:52.207Z,99175.18
2018-09-14T12:27:20.558Z,99171.57
2018-09-14T12:29:48.915Z,99173.62
2018-09-14T12:32:17.288Z,99166.96
2018-09-14T12:34:45.666Z,99169.95
2018-09-14T12:37:14.039Z,99164.02
2018-09-14T12:39:43.118Z,99151.14
2018-09-14T12:42:11.578Z,99151.84
2018-09-14T12:44:40.854Z,99158.61
2018-09-14T12:47:09.170Z,99154.39
2018-09-14T12:49:37.567Z,99152.52
2018-09-14T12:52:05.903Z,99150.34
2018-09-14T12:54:34.234Z,99155.58
2018-09-14T12:57:02.548Z,99151.51
2018-09-14T12:59:30.893Z,99151.48
2018-09-14T13:01:59.251Z,99147.89
2018-09-14T13:04:27.561Z,99146.47
2018-09-14T13:06:55.987Z,99134.94
2018-09-14T13:09:24.322Z,99136.16
2018-09-14T13:11:52.690Z,99136.55
2018-09-14T13:14:21.911Z,99134.84
2018-09-14T13:16:50.803Z,99135.67
2018-09-14T13:19:19.294Z,99137.11
2018-09-14T13:21:47.663Z,99131.05
2018-09-14T13:24:16.383Z,99126.22
2018-09-14T13:26:44.691Z,99133.91
2018-09-14T13:29:13.086Z,99126.88
2018-09-14T13:31:41.567Z,99126.23
2018-09-14T13:34:09.945Z,99130.94
2018-09-14T13:36:38.338Z,99118.23
2018-09-14T13:39:08.079Z,99114.93
2018-09-14T13:41:36.427Z,99109.83
2018-09-14T13:44:04.729Z,99111.42
2018-09-14T13:46:33.103Z,99115.73
2018-09-14T13:49:01.417Z,99106.34
2018-09-14T13:51:29.803Z,99104.22
2018-09-14T13:53:58.279Z,99110.09
2018-09-14T13:56:26.625Z,99112.45
2018-09-14T13:58:55.012Z,99106.64
2018-09-14T14:01:23.579Z,99108.37
2018-09-14T14:03:51.880Z,99107.45
2018-09-14T14:06:20.282Z,99103.22
2018-09-14T14:08:48.792Z,99101.33
2018-09-14T14:11:17.347Z,99098.52
2018-09-14T14:13:45.803Z,99096.31
2018-09-14T14:16:14.685Z,99096.30
2018-09-14T14:18:43.090Z,99095.60
2018-09-14T14:21:11.606Z,99091.27
2018-09-14T14:23:39.917Z,99090.83
2018-09-14T14:26:08.403Z,99087.55
2018-09-14T14:28:36.871Z,99087.28
2018-09-14T14:31:05.463Z,99083.91
2018-09-14T14:33:33.876Z,99088.91
2018-09-14T14:36:02.303Z,99091.61
2018-09-14T14:38:30.599Z,99094.06
2018-09-14T14:40:59.056Z,99095.01
2018-09-14T14:43:27.433Z,99094.89
2018-09-14T14:45:55.732Z,99091.60
2018-09-14T14:48:24.112Z,99088.20
2018-09-14T14:50:52.627Z,99087.29
2018-09-14T14:53:21.053Z,99090.78
2018-09-14T14:55:49.425Z,99083.11
2018-09-14T14:58:17.782Z,99085.44
2018-09-14T15:00:46.078Z,99081.61
2018-09-14T15:03:14.597Z,99079.80
2018-09-14T15:05:42.949Z,99080.67
2018-09-14T15:08:11.305Z,99083.55
2018-09-14T15:10:39.685Z,99089.22
2018-09-14T15:13:07.959Z,99083.16
2018-09-14T15:15:36.294Z,99086.17
2018-09-14T15:18:04.596Z,99080.63
2018-09-14T15:20:32.958Z,99078.27
2018-09-14T15:23:01.308Z,99079.24
2018-09-14T15:25:29.814Z,99079.78
2018-09-14T15:27:58.174Z,99077.19
2018-09-14T15:30:26.529Z,99074.05
2018-09-14T15:32:54.874Z,99067.61
2018-09-14T15:35:23.306Z,99069.85
2018-09-14T15:37:51.699Z,99071.89
2018-09-14T15:40:20.065Z,99063.52
2018-09-14T15:42:48.469Z,99068.17
2018-09-14T15:45:17.009Z,99071.30
2018-09-14T15:47:45.402Z,99078.67
2018-09-14T15:50:13.761Z,99073.18
2018-09-14T15:52:42.160Z,99071.84
2018-09-14T15:55:10.474Z,99065.89
2018-09-14T15:57:38.841Z,99070.64
2018-09-14T16:00:07.335Z,99069.47
2018-09-14T16:02:35.719Z,99069.28
2018-09-14T16:05:04.212Z,99065.80
2018-09-14T16:07:32.540Z,99067.44
2018-09-14T16:10:00.914Z,99063.78
2018-09-14T16:12:29.326Z,99063.14
2018-09-14T16:14:57.698Z,99057.98
2018-09-14T16:17:26.238Z,99058.08
2018-09-14T16:19:54.656Z,99055.95
2018-09-14T16:22:22.987Z,99068.80
2018-09-14T16:24:51.280Z,99069.14
2018-09-14T16:27:19.630Z,99066.44
2018-09-14T16:29:47.971Z,99069.28
2018-09-14T16:32:16.336Z,99070.91
2018-09-14T16:34:44.737Z,99068.31
2018-09-14T16:37:13.091Z,99074.64
2018-09-14T16:39:41.406Z,99074.54
2018-09-14T16:42:10.151Z,99070.91
2018-09-14T16:44:41.128Z,99073.20
2018-09-14T16:47:09.939Z,99072.11
2018-09-14T16:49:38.996Z,99064.77
2018-09-14T16:52:08.375Z,99071.11
2018-09-14T16:54:36.860Z,99068.09
2018-09-14T16:57:07.054Z,99071.36
2018-09-14T16:59:35.574Z,99068.20
2018-09-14T17:02:03.938Z,99065.98
2018-09-14T17:04:32.719Z,99071.23
2018-09-14T17:07:01.432Z,99066.36
2018-09-14T17:09:29.766Z,99068.73
2018-09-14T17:11:58.144Z,99066.05
2018-09-14T17:14:26.566Z,99066.77
2018-09-14T17:16:54.864Z,99075.38
2018-09-14T17:19:23.237Z,99080.13
2018-09-14T17:21:51.623Z,99079.94
2018-09-14T17:24:20.039Z,99078.95
2018-09-14T17:26:48.879Z,99084.31
2018-09-14T17:29:17.291Z,99088.34
2018-09-14T17:31:45.664Z,99081.41
2018-09-14T17:34:14.069Z,99086.27
2018-09-14T17:36:42.542Z,99085.56
2018-09-14T17:39:11.411Z,99093.75
2018-09-14T17:41:39.759Z,99095.61
2018-09-14T17:44:08.212Z,99094.38
2018-09-14T17:46:36.578Z,99095.19
2018-09-14T17:49:04.903Z,99098.34
2018-09-14T17:51:33.290Z,99102.83
2018-09-14T17:54:01.654Z,99102.70
2018-09-14T17:56:30.234Z,99097.41
2018-09-14T17:58:58.543Z,99103.20
2018-09-14T18:01:26.890Z,99120.89
2018-09-14T18:03:55.259Z,99115.90
2018-09-14T18:06:23.556Z,99120.86
2018-09-14T18:08:51.980Z,99120.05
2018-09-14T18:11:20.474Z,99123.73
2018-09-14T18:13:49.743Z,99121.70
2018-09-14T18:16:18.678Z,99127.23
2018-09-14T18:18:47.567Z,99142.05
2018-09-14T18:21:16.351Z,99138.49
2018-09-14T18:23:45.051Z,99133.02
2018-09-14T18:26:13.407Z,99134.83
2018-09-14T18:28:42.258Z,99135.98
2018-09-14T18:31:10.614Z,99138.06
2018-09-14T18:33:38.979Z,99138.86
2018-09-14T18:36:07.453Z,99136.44
2018-09-14T18:38:36.127Z,99138.45
2018-09-14T18:41:04.624Z,99138.18
2018-09-14T18:43:33.167Z,99141.36
2018-09-14T18:46:01.824Z,99140.67
2018-09-14T18:48:30.283Z,99138.82
2018-09-14T18:50:58.764Z,99133.77
2018-09-14T18:53:27.138Z,99138.39
2018-09-14T18:55:55.512Z,99144.70
2018-09-14T18:58:24.160Z,99143.58
2018-09-14T19:00:52.555Z,99140.20
2018-09-14T19:03:20.939Z,99142.44
2018-09-14T19:05:49.483Z,99147.60
2018-09-14T19:08:17.986Z,99148.94
2018-09-14T19:10:46.339Z,99151.17
2018-09-14T19:13:14.891Z,99154.25
2018-09-14T19:15:43.336Z,99153.63
2018-09-14T19:18:11.835Z,99161.52
2018-09-14T19:20:40.370Z,99166.33
2018-09-14T19:23:08.913Z,99167.82
2018-09-14T19:25:37.805Z,99168.66
2018-09-14T19:28:06.392Z,99167.82
2018-09-14T19:30:34.909Z,99165.69
2018-09-14T19:33:03.326Z,99165.84
2018-09-14T19:35:32.262Z,99170.35
2018-09-14T19:38:00.614Z,99173.58
2018-09-14T19:40:28.978Z,99164.84
2018-09-14T19:42:57.287Z,99168.92
2018-09-14T19:45:25.631Z,99168.27
2018-09-14T19:47:53.974Z,99175.27
2018-09-14T19:50:22.870Z,99170.55
2018-09-14T19:52:51.261Z,99172.73
2018-09-14T19:55:19.751Z,99171.09
2018-09-14T19:57:48.121Z,99167.31
2018-09-14T20:00:16.508Z,99165.09
2018-09-14T20:02:44.860Z,99155.66
2018-09-14T20:05:13.173Z,99164.69
2018-09-14T20:07:41.575Z,99161.31
2018-09-14T20:10:10.022Z,99159.73
2018-09-14T20:12:38.453Z,99158.09
2018-09-14T20:15:07.207Z,99161.70
2018-09-14T20:17:35.554Z,99160.16
2018-09-14T20:20:03.946Z,99166.98
2018-09-14T20:22:32.280Z,99166.12
2018-09-14T20:25:00.667Z,99163.40
2018-09-14T20:27:28.958Z,99169.21
2018-09-14T20:29:57.322Z,99161.88
2018-09-14T20:32:25.732Z,99165.84
2018-09-14T20:34:54.132Z,99157.20
2018-09-14T20:37:22.588Z,99163.66
2018-09-14T20:39:50.922Z,99163.10
2018-09-14T20:42:19.405Z,99167.12
2018-09-14T20:44:47.764Z,99163.78
2018-09-14T20:47:16.089Z,99163.54
2018-09-14T20:49:44.392Z,99166.02
2018-09-14T20:52:12.721Z,99160.95
2018-09-14T20:54:41.103Z,99167.01
2018-09-14T20:57:09.456Z,99160.74
2018-09-14T20:59:37.754Z,99163.27
2018-09-14T21:02:06.255Z,99163.06
2018-09-14T21:04:34.606Z,99161.30
2018-09-14T21:07:03.025Z,99151.71
2018-09-14T21:09:31.343Z,99154.97
2018-09-14T21:11:59.803Z,99157.64
2018-09-14T21:14:28.091Z,99152.92
2018-09-14T21:16:56.439Z,99161.31
2018-09-14T21:19:24.855Z,99161.75
2018-09-14T21:21:53.305Z,99168.94
2018-09-14T21:24:21.598Z,99172.46
2018-09-14T21:26:50.201Z,99171.55
2018-09-14T21:29:18.642Z,99175.99
2018-09-14T21:31:46.935Z,99174.78
2018-09-14T21:34:15.260Z,99178.22
2018-09-14T21:36:43.580Z,99181.88
2018-09-14T21:39:12.529Z,99178.27
2018-09-14T21:41:41.179Z,99177.30
2018-09-14T21:44:10.211Z,99180.56
2018-09-14T21:46:38.560Z,99180.84
2018-09-14T21:49:07.238Z,99187.19
2018-09-14T21:51:35.575Z,99183.56
2018-09-14T21:54:03.955Z,99185.41
2018-09-14T21:56:32.233Z,99182.72
2018-09-14T21:59:00.528Z,99179.55
2018-09-14T22:01:30.070Z,99177.80
2018-09-14T22:03:59.650Z,99182.09
2018-09-14T22:06:28.114Z,99180.41
2018-09-14T22:08:56.926Z,99187.66
2018-09-14T22:11:25.277Z,99183.43
2018-09-14T22:13:53.639Z,99188.57
2018-09-14T22:16:21.986Z,99190.61
2018-09-14T22:18:50.327Z,99188.50
2018-09-14T22:21:19.621Z,99188.50
2018-09-14T22:23:48.271Z,99183.80
2018-09-14T22:26:16.635Z,99181.45
2018-09-14T22:28:44.975Z,99189.02
2018-09-14T22:31:13.561Z,99195.22
2018-09-14T22:33:41.892Z,99197.19
2018-09-14T22:36:10.211Z,99193.97
2018-09-14T22:38:38.735Z,99190.56
2018-09-14T22:46:52.370Z,99182.66
2018-09-14T22:49:20.665Z,99186.10
2018-09-14T22:51:49.154Z,99192.58
2018-09-14T22:54:17.463Z,99194.63
2018-09-14T22:56:45.775Z,99192.50
2018-09-14T22:59:14.138Z,99191.10
2018-09-14T23:01:42.472Z,99185.89
2018-09-14T23:04:10.746Z,99195.19
2018-09-14T23:06:39.141Z,99190.88
2018-09-14T23:09:08.280Z,99197.86
2018-09-14T23:11:36.649Z,99191.67
2018-09-14T23:14:05.034Z,99194.98
2018-09-14T23:16:33.339Z,99200.70
2018-09-14T23:19:01.617Z,99206.05
2018-09-14T23:21:29.926Z,99194.28
2018-09-14T23:23:58.290Z,99192.66
2018-09-14T23:26:27.028Z,99196.33
2018-09-14T23:28:55.363Z,99193.98
2018-09-14T23:31:23.687Z,99191.62
2018-09-14T23:33:52.058Z,99197.73
2018-09-14T23:36:20.345Z,99200.35
2018-09-14T23:38:48.715Z,99195.70
2018-09-14T23:41:17.010Z,99196.19
2018-09-14T23:43:45.308Z,99201.05
2018-09-14T23:46:13.645Z,99198.31
2018-09-14T23:48:41.928Z,99197.58
2018-09-14T23:51:10.235Z,99203.17
2018-09-14T23:53:38.552Z,99199.42
2018-09-14T23:56:06.884Z,99201.11
2018-09-14T23:58:35.424Z,99197.25
